Time;durP1;ratioP1;P1;durP2;ratioP2;P2;SDS_P1;SDS_P2;PMS_P1;PMS_P2;Temp;Humidity;BMP_temperature;BMP_pressure;BME280_temperature;BME280_humidity;BME280_pressure;Samples;Min_cycle;Max_cycle;Signal;HPM_P1;HPM_P2
2023/12/19 00:00:27;;;;;;;33.50;14.63;;;;;;;4.17;100.00;102436.22;5093007;28;20073;-81
2023/12/19 00:02:52;;;;;;;37.40;15.38;;;;;;;4.17;100.00;102440.75;5076381;28;20086;-81
2023/12/19 00:05:18;;;;;;;42.43;17.33;;;;;;;4.16;100.00;102460.53;5092752;28;20040;-81
2023/12/19 00:07:44;;;;;;;35.17;17.00;;;;;;;4.17;100.00;102459.56;5076448;28;20036;-81
2023/12/19 00:10:10;;;;;;;30.80;14.77;;;;;;;4.20;100.00;102445.84;5076080;28;20085;-80
2023/12/19 00:12:35;;;;;;;30.23;14.85;;;;;;;4.27;100.00;102457.78;5075890;28;20298;-81
2023/12/19 00:15:00;;;;;;;34.53;15.03;;;;;;;4.25;100.00;102440.91;5075785;28;20144;-81
2023/12/19 00:17:26;;;;;;;34.57;15.90;;;;;;;4.27;100.00;102432.75;5075832;28;20433;-81
2023/12/19 00:19:51;;;;;;;35.23;15.87;;;;;;;4.27;100.00;102422.84;5075708;28;20039;-81
2023/12/19 00:22:17;;;;;;;36.60;16.80;;;;;;;4.27;100.00;102416.63;5092485;28;20499;-81
2023/12/19 00:24:42;;;;;;;39.70;16.60;;;;;;;4.27;100.00;102413.94;5075472;28;20365;-81
2023/12/19 00:27:07;;;;;;;37.67;15.30;;;;;;;4.28;100.00;102416.50;5074818;28;20038;-81
2023/12/19 00:29:33;;;;;;;34.43;15.60;;;;;;;4.27;100.00;102411.25;5091993;28;20032;-81
2023/12/19 00:31:58;;;;;;;45.20;16.67;;;;;;;4.28;100.00;102424.56;5075483;28;20059;-81
2023/12/19 00:34:24;;;;;;;40.33;15.67;;;;;;;4.31;100.00;102407.28;5075768;28;20480;-81
2023/12/19 00:36:50;;;;;;;44.60;15.52;;;;;;;4.31;100.00;102396.53;5075469;28;20133;-81
2023/12/19 00:39:18;;;;;;;36.10;15.20;;;;;;;4.34;100.00;102388.19;5092577;28;20036;-81
2023/12/19 00:41:43;;;;;;;37.85;16.25;;;;;;;4.31;100.00;102400.09;5059510;28;20119;-81
2023/12/19 00:44:09;;;;;;;38.50;16.67;;;;;;;4.31;100.00;102396.53;5076151;28;20497;-80
2023/12/19 00:46:34;;;;;;;36.70;15.25;;;;;;;4.31;100.00;102388.47;5092308;28;20032;-81
2023/12/19 00:48:59;;;;;;;40.15;16.50;;;;;;;4.32;100.00;102376.75;5075969;28;20513;-81
2023/12/19 00:51:25;;;;;;;39.40;15.60;;;;;;;4.33;100.00;102362.34;5071655;28;20546;-81
2023/12/19 00:53:50;;;;;;;39.27;14.90;;;;;;;4.33;100.00;102368.56;5088889;28;20036;-81
2023/12/19 00:56:15;;;;;;;37.93;16.13;;;;;;;4.34;100.00;102358.63;5072229;28;20162;-82
2023/12/19 00:58:43;;;;;;;42.87;16.37;;;;;;;4.34;100.00;102355.94;5072848;28;20032;-81
2023/12/19 01:01:08;;;;;;;33.97;15.23;;;;;;;4.35;100.00;102349.59;5072094;28;20044;-81
2023/12/19 01:03:34;;;;;;;35.50;15.73;;;;;;;4.35;100.00;102350.44;5071807;28;20021;-81
2023/12/19 01:06:02;;;;;;;45.88;18.05;;;;;;;4.35;100.00;102354.97;5072070;28;20115;-81
2023/12/19 01:08:28;;;;;;;33.50;14.75;;;;;;;4.39;100.00;102345.66;5073225;28;20028;-81
2023/12/19 01:10:54;;;;;;;30.60;14.02;;;;;;;4.42;100.00;102344.53;5055050;28;20507;-81
2023/12/19 01:13:20;;;;;;;33.80;14.73;;;;;;;4.40;100.00;102342.00;5071583;28;20024;-81
2023/12/19 01:15:45;;;;;;;36.53;15.70;;;;;;;4.42;100.00;102337.31;5071945;28;20125;-81
2023/12/19 01:18:11;;;;;;;33.23;14.73;;;;;;;4.44;100.00;102327.25;5088885;28;20067;-81
2023/12/19 01:20:36;;;;;;;39.33;16.00;;;;;;;4.44;100.00;102331.81;5071976;28;20064;-81
2023/12/19 01:23:02;;;;;;;41.97;15.90;;;;;;;4.44;100.00;102326.44;5071660;28;20404;-81
2023/12/19 01:25:27;;;;;;;37.83;16.23;;;;;;;4.46;100.00;102327.13;5088849;28;20039;-81
2023/12/19 01:27:56;;;;;;;35.27;15.67;;;;;;;4.47;100.00;102327.00;5071398;28;20472;-81
2023/12/19 01:30:21;;;;;;;41.83;18.73;;;;;;;4.53;100.00;102342.59;5072599;28;20397;-81
2023/12/19 01:32:48;;;;;;;38.67;15.67;;;;;;;4.49;100.00;102329.56;5071402;28;20048;-81
2023/12/19 01:35:13;;;;;;;43.65;17.40;;;;;;;4.51;100.00;102323.03;5072974;28;20025;-81
2023/12/19 01:37:38;;;;;;;36.03;15.43;;;;;;;4.49;100.00;102329.56;5071441;28;20055;-81
2023/12/19 01:40:08;;;;;;;37.97;15.77;;;;;;;4.58;100.00;102326.03;5075236;28;20040;-81
2023/12/19 01:42:33;;;;;;;37.90;16.40;;;;;;;4.53;100.00;102333.66;5075293;28;20283;-81
2023/12/19 01:45:13;;;;;;;32.43;13.87;;;;;;;4.59;100.00;102324.19;5077009;28;20032;-81
2023/12/19 01:47:44;;;;;;;38.05;15.30;;;;;;;4.56;100.00;102320.78;5076758;28;20040;-81
2023/12/19 01:50:12;;;;;;;35.85;16.17;;;;;;;4.55;100.00;102319.09;5091895;28;20020;-81
2023/12/19 01:52:42;;;;;;;38.35;16.15;;;;;;;4.55;100.00;102316.41;5074709;28;20025;-81
2023/12/19 01:55:08;;;;;;;39.47;16.27;;;;;;;4.54;100.00;102308.47;5076391;28;20116;-81
2023/12/19 01:57:35;;;;;;;42.23;16.17;;;;;;;4.54;100.00;102319.22;5074715;28;20124;-81
2023/12/19 02:00:01;;;;;;;43.28;16.48;;;;;;;4.57;100.00;102318.94;5074888;28;20040;-81
2023/12/19 02:02:26;;;;;;;35.92;17.05;;;;;;;4.56;100.00;102307.34;5075467;28;20037;-81
2023/12/19 02:04:56;;;;;;;38.53;15.57;;;;;;;4.57;100.00;102308.19;5041738;28;20032;-81
2023/12/19 02:07:22;;;;;;;39.83;16.05;;;;;;;4.59;100.00;102308.88;5076410;28;20117;-81
2023/12/19 02:09:47;;;;;;;43.63;16.23;;;;;;;4.61;100.00;102306.09;5074747;28;20064;-81
2023/12/19 02:12:18;;;;;;;40.83;16.10;;;;;;;4.60;100.00;102301.69;5075972;28;20025;-81
2023/12/19 02:14:44;;;;;;;40.33;15.85;;;;;;;4.63;100.00;102302.25;5076609;28;20116;-81
2023/12/19 02:17:12;;;;;;;39.65;16.40;;;;;;;4.59;100.00;102314.25;5041615;28;20047;-81
2023/12/19 02:19:48;;;;;;;42.90;16.38;;;;;;;4.58;100.00;102296.47;5075007;28;20036;-81
2023/12/19 02:22:14;;;;;;;43.70;15.98;;;;;;;4.57;100.00;102284.00;5075463;28;20035;-81
2023/12/19 02:24:40;;;;;;;37.13;15.82;;;;;;;4.53;100.00;102287.94;5074856;28;20036;-81
2023/12/19 02:27:06;;;;;;;36.97;14.43;;;;;;;4.51;100.00;102268.44;5074166;28;20031;-81
2023/12/19 02:29:32;;;;;;;45.75;16.92;;;;;;;4.45;100.00;102269.00;5074532;28;20044;-81
2023/12/19 02:31:58;;;;;;;39.37;16.37;;;;;;;4.47;100.00;102269.69;5074386;28;20465;-81
2023/12/19 02:34:26;;;;;;;43.10;17.02;;;;;;;4.44;100.00;102280.75;5074017;28;20052;-81
2023/12/19 02:36:52;;;;;;;43.60;17.02;;;;;;;4.41;100.00;102273.78;5058020;28;20032;-81
2023/12/19 02:39:17;;;;;;;41.87;17.87;;;;;;;4.41;100.00;102273.78;5074398;28;20483;-81
2023/12/19 02:41:43;;;;;;;34.80;14.98;;;;;;;4.41;100.00;102270.28;5091189;28;20024;-81
2023/12/19 02:44:09;;;;;;;36.33;15.07;;;;;;;4.42;100.00;102274.66;5075349;28;20059;-81
2023/12/19 02:46:35;;;;;;;40.17;17.00;;;;;;;4.39;100.00;102270.41;5074229;28;20435;-81
2023/12/19 02:49:00;;;;;;;41.27;15.87;;;;;;;4.41;100.00;102270.28;5073773;28;20431;-81
2023/12/19 02:51:26;;;;;;;37.35;15.18;;;;;;;4.39;100.00;102271.25;5074969;28;20033;-81
2023/12/19 02:53:53;;;;;;;40.73;15.93;;;;;;;4.39;100.00;102254.28;5073838;28;20404;-81
2023/12/19 02:56:18;;;;;;;41.85;15.65;;;;;;;4.44;100.00;102253.84;5073500;28;20028;-81
2023/12/19 02:58:44;;;;;;;34.20;13.03;;;;;;;4.42;100.00;102253.16;5073843;28;20036;-81
2023/12/19 03:01:09;;;;;;;36.10;14.87;;;;;;;4.35;100.00;102240.25;5074020;28;20079;-80
2023/12/19 03:03:35;;;;;;;45.08;16.25;;;;;;;4.37;100.00;102232.94;5073751;28;20052;-80
2023/12/19 03:06:01;;;;;;;37.07;15.13;;;;;;;4.34;100.00;102226.97;5074031;28;20039;-79
2023/12/19 03:08:27;;;;;;;36.17;14.75;;;;;;;4.32;100.00;102237.84;5074671;28;20051;-80
2023/12/19 03:10:52;;;;;;;41.33;14.87;;;;;;;4.33;100.00;102227.97;5073215;28;20511;-81
2023/12/19 03:13:18;;;;;;;44.25;17.15;;;;;;;4.30;100.00;102218.34;5074225;28;20039;-81
2023/12/19 03:15:43;;;;;;;37.33;14.47;;;;;;;4.31;100.00;102217.38;5073664;28;20036;-80
2023/12/19 03:18:09;;;;;;;37.30;14.63;;;;;;;4.38;100.00;102207.75;5073473;28;20047;-80
2023/12/19 03:20:34;;;;;;;37.70;14.70;;;;;;;4.33;100.00;102198.41;5073319;28;20032;-80
2023/12/19 03:22:59;;;;;;;32.88;13.07;;;;;;;4.33;100.00;102199.25;5073738;28;20468;-79
2023/12/19 03:25:25;;;;;;;40.55;15.75;;;;;;;4.32;100.00;102197.56;5040307;28;20078;-80
2023/12/19 03:27:50;;;;;;;42.33;17.73;;;;;;;4.34;100.00;102184.84;5072648;28;20045;-80
2023/12/19 03:30:16;;;;;;;40.93;16.30;;;;;;;4.33;100.00;102193.03;5073336;28;20131;-80
2023/12/19 03:32:41;;;;;;;43.47;16.88;;;;;;;4.34;100.00;102179.47;5072774;28;20057;-79
2023/12/19 03:35:07;;;;;;;39.27;15.13;;;;;;;4.33;100.00;102167.00;5073339;28;20196;-80
2023/12/19 03:37:33;;;;;;;45.77;17.57;;;;;;;4.32;100.00;102159.94;5073307;28;20032;-79
2023/12/19 03:39:58;;;;;;;36.15;15.02;;;;;;;4.32;100.00;102151.88;5072973;28;20067;-80
2023/12/19 03:42:23;;;;;;;48.20;16.10;;;;;;;4.32;100.00;102159.94;5057314;28;20123;-79
2023/12/19 03:44:49;;;;;;;50.03;16.63;;;;;;;4.32;100.00;102143.81;5089989;28;20032;-80
2023/12/19 03:47:16;;;;;;;40.25;15.82;;;;;;;4.36;100.00;102157.81;5056432;28;20032;-80
2023/12/19 03:49:42;;;;;;;46.60;17.42;;;;;;;4.34;100.00;102147.22;5072951;28;20480;-80
2023/12/19 03:52:10;;;;;;;51.90;17.15;;;;;;;4.36;100.00;102152.44;5073073;28;20033;-80
2023/12/19 03:54:35;;;;;;;44.90;16.55;;;;;;;4.36;100.00;102142.53;5074378;28;20373;-80
2023/12/19 03:57:01;;;;;;;51.37;16.57;;;;;;;4.40;100.00;102145.81;5072740;28;20040;-80
2023/12/19 03:59:26;;;;;;;54.17;18.83;;;;;;;4.41;100.00;102143.97;5074305;28;20100;-80
2023/12/19 04:01:51;;;;;;;60.40;19.17;;;;;;;4.41;100.00;102131.34;5072021;28;20048;-80
2023/12/19 04:04:17;;;;;;;63.20;18.67;;;;;;;4.41;100.00;102131.34;5089620;28;20547;-80
2023/12/19 04:06:45;;;;;;;57.05;18.38;;;;;;;4.47;100.00;102127.25;5074120;28;20029;-80
2023/12/19 04:09:11;;;;;;;50.20;17.50;;;;;;;4.46;100.00;102136.31;5072698;28;20032;-80
2023/12/19 04:11:36;;;;;;;62.47;20.63;;;;;;;4.46;100.00;102130.91;5072596;28;20055;-80
2023/12/19 04:14:03;;;;;;;55.63;19.70;;;;;;;4.50;100.00;102132.34;5072775;28;20033;-79
2023/12/19 04:16:28;;;;;;;58.80;19.55;;;;;;;4.51;100.00;102144.78;5072640;28;20039;-79
2023/12/19 04:18:54;;;;;;;52.13;18.27;;;;;;;4.54;100.00;102120.31;5072451;28;20056;-80
2023/12/19 04:21:19;;;;;;;69.10;21.63;;;;;;;4.51;100.00;102131.34;5072702;28;20090;-80
2023/12/19 04:23:44;;;;;;;59.67;19.83;;;;;;;4.52;100.00;102117.78;5055936;28;20032;-80
2023/12/19 04:26:19;;;;;;;73.33;22.70;;;;;;;4.54;100.00;102113.09;5055313;28;20040;-80
2023/12/19 04:28:48;;;;;;;69.63;23.20;;;;;;;4.57;100.00;102093.16;5088989;28;20284;-80
2023/12/19 04:31:14;;;;;;;71.95;23.20;;;;;;;4.58;100.00;102094.84;5073446;28;20476;-80
2023/12/19 04:33:39;;;;;;;76.63;22.77;;;;;;;4.61;100.00;102077.59;5072206;28;20137;-80
2023/12/19 04:36:07;;;;;;;66.95;21.58;;;;;;;4.63;100.00;102078.28;5055449;28;20059;-80
2023/12/19 04:38:33;;;;;;;70.00;22.60;;;;;;;4.64;100.00;102077.28;5055595;28;20040;-80
2023/12/19 04:40:59;;;;;;;69.35;20.70;;;;;;;4.63;100.00;102068.34;5073356;28;20041;-80
2023/12/19 04:43:24;;;;;;;75.03;22.33;;;;;;;4.68;100.00;102067.91;5072456;28;20040;-80
2023/12/19 04:45:50;;;;;;;63.28;19.60;;;;;;;4.72;100.00;102053.19;5072113;28;20050;-80
2023/12/19 04:48:16;;;;;;;68.10;21.98;;;;;;;4.70;100.00;102053.34;5072274;28;20024;-80
2023/12/19 04:50:41;;;;;;;69.70;22.07;;;;;;;4.74;100.00;102046.69;5072047;28;20067;-80
2023/12/19 04:53:08;;;;;;;64.90;22.58;;;;;;;4.74;100.00;102041.31;5072446;28;20035;-80
2023/12/19 04:55:33;;;;;;;54.85;18.45;;;;;;;4.80;100.00;102041.69;5088686;28;20123;-80
2023/12/19 04:57:59;;;;;;;68.10;21.47;;;;;;;4.81;100.00;102046.09;5071475;28;20111;-80
2023/12/19 05:00:24;;;;;;;71.23;21.40;;;;;;;4.80;100.00;102039.88;5072097;28;20028;-80
2023/12/19 05:02:49;;;;;;;65.20;22.17;;;;;;;4.89;100.00;102022.84;5071928;28;20083;-80
2023/12/19 05:05:15;;;;;;;73.07;23.25;;;;;;;4.92;100.00;102019.00;5072594;28;20102;-80
2023/12/19 05:07:40;;;;;;;71.43;21.77;;;;;;;4.91;100.00;102028.91;5072004;28;20029;-80
2023/12/19 05:10:06;;;;;;;62.10;21.23;;;;;;;4.91;100.00;102036.97;5055318;28;20020;-80
2023/12/19 05:12:31;;;;;;;67.85;22.63;;;;;;;4.94;100.00;102057.34;5073172;28;20047;-80
2023/12/19 05:14:57;;;;;;;74.33;22.87;;;;;;;4.93;100.00;102058.34;5073857;28;20079;-80
2023/12/19 05:17:22;;;;;;;64.50;21.23;;;;;;;4.98;100.00;102047.16;5042538;28;20035;-80
2023/12/19 05:19:47;;;;;;;62.27;23.20;;;;;;;5.02;100.00;102043.16;5059506;28;20032;-80
2023/12/19 05:22:13;;;;;;;70.40;22.60;;;;;;;5.00;100.00;102050.53;5075891;28;20032;-79
2023/12/19 05:24:41;;;;;;;57.07;20.97;;;;;;;5.01;100.00;102042.31;5075811;28;20044;-80
2023/12/19 05:27:09;;;;;;;61.63;21.60;;;;;;;5.05;100.00;102035.66;5075288;28;20330;-80
2023/12/19 05:29:35;;;;;;;55.00;21.52;;;;;;;5.07;100.00;102039.00;5058884;28;20058;-80
2023/12/19 05:32:01;;;;;;;58.47;20.27;;;;;;;5.04;100.00;102047.38;5075509;28;20116;-80
2023/12/19 05:34:26;;;;;;;61.07;22.00;;;;;;;5.08;100.00;102034.50;5075333;28;20404;-80
2023/12/19 05:36:51;;;;;;;49.87;19.20;;;;;;;5.09;100.00;102025.41;5092341;28;20129;-80
2023/12/19 05:39:17;;;;;;;63.17;22.47;;;;;;;5.11;100.00;102034.19;5092258;28;20407;-80
2023/12/19 05:41:43;;;;;;;68.13;24.17;;;;;;;5.12;100.00;102038.56;5058759;28;20078;-80
2023/12/19 05:44:08;;;;;;;60.25;22.25;;;;;;;5.13;100.00;102023.28;5075430;28;20115;-81
2023/12/19 05:46:34;;;;;;;65.75;22.70;;;;;;;5.16;100.00;102025.66;5075019;28;20033;-80
2023/12/19 05:49:00;;;;;;;57.10;21.40;;;;;;;5.18;100.00;102005.69;5075088;28;20060;-80
2023/12/19 05:51:26;;;;;;;54.33;20.55;;;;;;;5.18;100.00;102010.22;5058844;28;20032;-80
2023/12/19 05:53:51;;;;;;;52.57;20.80;;;;;;;5.17;100.00;102009.38;5079277;28;20036;-80
2023/12/19 05:56:16;;;;;;;56.10;19.43;;;;;;;5.18;100.00;101997.63;5078077;28;20383;-87
2023/12/19 05:58:44;;;;;;;46.42;19.88;;;;;;;5.20;100.00;101997.47;5095123;28;20050;-80
2023/12/19 06:01:10;;;;;;;53.42;20.98;;;;;;;5.18;100.00;101991.38;5095737;28;20036;-80
2023/12/19 06:03:35;;;;;;;41.15;17.83;;;;;;;5.19;100.00;101993.09;5095150;28;20057;-80
2023/12/19 06:06:00;;;;;;;50.00;19.33;;;;;;;5.18;100.00;101994.06;5095052;28;20495;-80
2023/12/19 06:08:26;;;;;;;37.87;18.07;;;;;;;5.26;100.00;101988.78;5078342;28;20495;-80
2023/12/19 06:10:52;;;;;;;42.50;16.93;;;;;;;5.23;100.00;101981.84;5078683;28;20178;-80
2023/12/19 06:13:18;;;;;;;52.95;19.88;;;;;;;5.26;100.00;101988.78;5078195;28;20028;-80
2023/12/19 06:15:44;;;;;;;54.10;20.45;;;;;;;5.20;100.00;101984.03;5094998;28;20047;-80
2023/12/19 06:18:10;;;;;;;43.53;18.70;;;;;;;5.19;100.00;101990.38;5095085;28;20067;-80
2023/12/19 06:20:35;;;;;;;52.80;19.88;;;;;;;5.19;100.00;101995.78;5095440;28;20035;-80
2023/12/19 06:23:00;;;;;;;43.30;17.93;;;;;;;5.17;100.00;101981.63;5095268;28;20115;-80
2023/12/19 06:25:26;;;;;;;42.80;17.67;;;;;;;5.22;100.00;101985.53;5094650;28;20039;-84
2023/12/19 06:27:52;;;;;;;47.90;19.07;;;;;;;5.27;100.00;101983.25;5094558;28;20036;-84
2023/12/19 06:30:17;;;;;;;44.65;18.70;;;;;;;5.32;100.00;101977.41;5078198;28;20039;-84
2023/12/19 06:32:45;;;;;;;34.43;15.77;;;;;;;5.37;100.00;101982.31;5095739;28;20453;-84
2023/12/19 06:35:11;;;;;;;42.13;18.35;;;;;;;5.32;100.00;101982.78;5095053;28;20032;-84
2023/12/19 06:37:36;;;;;;;47.30;17.63;;;;;;;5.34;100.00;101979.94;5094416;28;20028;-83
2023/12/19 06:40:05;;;;;;;50.60;20.63;;;;;;;5.34;100.00;101969.19;5094476;28;20040;-81
2023/12/19 06:42:31;;;;;;;44.53;18.77;;;;;;;5.33;100.00;101975.56;5077861;28;20533;-81
2023/12/19 06:44:56;;;;;;;48.63;18.10;;;;;;;5.38;100.00;101963.34;5094437;28;20032;-81
2023/12/19 06:47:21;;;;;;;42.00;18.93;;;;;;;5.37;100.00;101972.41;5094151;28;20043;-81
2023/12/19 06:49:47;;;;;;;42.23;17.77;;;;;;;5.35;100.00;101977.09;5095551;28;20062;-80
2023/12/19 06:52:12;;;;;;;41.27;18.60;;;;;;;5.33;100.00;102011.41;5094112;28;20086;-81
2023/12/19 06:54:38;;;;;;;38.03;17.42;;;;;;;5.36;100.00;101968.03;5094390;28;20301;-82
2023/12/19 06:57:04;;;;;;;44.47;18.63;;;;;;;5.39;100.00;101967.72;5093976;28;20028;-82
2023/12/19 06:59:32;;;;;;;45.05;18.52;;;;;;;5.42;100.00;101977.34;5068381;28;20034;-81
2023/12/19 07:01:58;;;;;;;32.58;16.13;;;;;;;5.40;100.00;101980.19;5090197;28;20040;-81
2023/12/19 07:04:23;;;;;;;40.67;17.40;;;;;;;5.43;100.00;101962.88;5073295;28;20089;-81
2023/12/19 07:06:48;;;;;;;42.40;17.27;;;;;;;5.46;100.00;101959.88;5071623;28;20031;-80
2023/12/19 07:09:14;;;;;;;36.50;16.75;;;;;;;5.48;100.00;101957.88;5093450;28;20468;-81
2023/12/19 07:11:40;;;;;;;39.43;16.73;;;;;;;5.50;100.00;101946.97;5093288;28;20594;-81
2023/12/19 07:14:06;;;;;;;42.50;17.48;;;;;;;5.52;100.00;101948.50;5073642;28;20052;-81
2023/12/19 07:16:32;;;;;;;41.17;16.73;;;;;;;5.59;100.00;101952.22;5082998;28;20108;-81
2023/12/19 07:18:57;;;;;;;36.50;16.90;;;;;;;5.61;100.00;101958.34;5059551;28;20040;-81
2023/12/19 07:21:24;;;;;;;29.40;14.77;;;;;;;5.67;100.00;101958.69;5090392;28;20046;-81
2023/12/19 07:23:53;;;;;;;33.17;15.50;;;;;;;5.68;100.00;101946.94;5093254;28;20024;-82
2023/12/19 07:26:27;;;;;;;31.83;16.48;;;;;;;5.71;100.00;101939.38;5079290;28;20028;-81
2023/12/19 07:28:54;;;;;;;23.37;13.53;;;;;;;5.76;100.00;101939.75;5085347;28;20040;-81
2023/12/19 07:31:27;;;;;;;29.38;13.73;;;;;;;5.87;100.00;101935.13;5086839;28;20020;-82
2023/12/19 07:33:57;;;;;;;29.27;14.98;;;;;;;5.85;100.00;101940.66;5092621;28;20052;-82
2023/12/19 07:36:23;;;;;;;25.42;12.80;;;;;;;5.84;100.00;101927.38;5075757;28;20440;-81
2023/12/19 07:38:49;;;;;;;33.45;14.77;;;;;;;5.82;100.00;101941.00;5072148;28;20429;-82
2023/12/19 07:41:15;;;;;;;27.87;14.50;;;;;;;5.83;100.00;101953.47;5088691;28;20032;-82
2023/12/19 07:43:40;;;;;;;26.58;13.57;;;;;;;5.87;100.00;101940.50;5092894;28;20361;-81
2023/12/19 07:46:06;;;;;;;31.53;14.83;;;;;;;5.91;100.00;101944.59;5092848;28;20107;-82
2023/12/19 07:48:32;;;;;;;23.93;13.10;;;;;;;5.88;100.00;101943.03;5090742;28;20396;-82
2023/12/19 07:50:58;;;;;;;24.60;13.27;;;;;;;5.94;100.00;101941.56;5082700;28;20073;-81
2023/12/19 07:53:26;;;;;;;26.85;13.43;;;;;;;5.91;100.00;101939.19;5092578;28;20424;-81
2023/12/19 07:55:52;;;;;;;24.93;12.97;;;;;;;5.96;100.00;101934.16;5092589;28;20119;-81
2023/12/19 07:58:17;;;;;;;22.40;12.60;;;;;;;5.95;100.00;101919.88;5093514;28;20031;-81
2023/12/19 08:00:43;;;;;;;26.73;12.87;;;;;;;6.02;100.00;101917.41;5092604;28;20031;-81
2023/12/19 08:03:11;;;;;;;21.95;12.73;;;;;;;6.04;100.00;101928.00;5092542;28;20440;-81
2023/12/19 08:05:36;;;;;;;21.98;12.60;;;;;;;6.02;100.00;101922.78;5092618;28;20061;-81
2023/12/19 08:08:02;;;;;;;29.83;13.05;;;;;;;5.97;100.00;101925.13;5093682;28;20597;-80
2023/12/19 08:10:27;;;;;;;25.47;12.00;;;;;;;5.89;100.00;101912.44;5074380;28;20098;-81
2023/12/19 08:12:57;;;;;;;23.93;10.67;;;;;;;5.86;100.00;101904.66;5075539;28;20054;-80
2023/12/19 08:15:23;;;;;;;24.75;13.38;;;;;;;5.77;100.00;101924.44;5091897;28;20055;-81
2023/12/19 08:17:48;;;;;;;24.23;12.67;;;;;;;5.71;100.00;101925.06;5092674;28;20059;-80
2023/12/19 08:20:15;;;;;;;30.00;12.20;;;;;;;5.70;100.00;101923.38;5059131;28;20051;-80
2023/12/19 08:22:42;;;;;;;32.75;14.52;;;;;;;5.65;100.00;101915.78;5093742;28;20111;-80
2023/12/19 08:25:08;;;;;;;36.85;13.57;;;;;;;5.62;100.00;101924.16;5093708;28;20086;-80
2023/12/19 08:27:35;;;;;;;30.05;14.38;;;;;;;5.61;100.00;101917.94;5092307;28;20032;-80
2023/12/19 08:30:04;;;;;;;29.63;13.50;;;;;;;5.63;100.00;101915.94;5092783;28;20030;-80
2023/12/19 08:32:30;;;;;;;34.97;14.68;;;;;;;5.59;100.00;101901.09;5092140;28;20028;-80
2023/12/19 08:34:58;;;;;;;33.50;14.30;;;;;;;5.58;100.00;101914.69;5093491;28;20494;-80
2023/12/19 08:37:24;;;;;;;36.67;15.35;;;;;;;5.56;100.00;101924.78;5076045;28;20032;-80
2023/12/19 08:39:54;;;;;;;39.88;15.85;;;;;;;5.56;100.00;101927.50;5093565;28;20089;-80
2023/12/19 08:42:20;;;;;;;33.67;14.33;;;;;;;5.54;100.00;101916.03;5076169;28;20514;-80
2023/12/19 08:44:46;;;;;;;37.90;14.98;;;;;;;5.54;100.00;101907.97;5094107;28;20024;-80
2023/12/19 08:47:11;;;;;;;34.72;15.40;;;;;;;5.55;100.00;101902.41;5075330;28;20032;-80
2023/12/19 08:49:42;;;;;;;37.33;15.05;;;;;;;5.54;100.00;101913.34;5095613;28;20032;-80
2023/12/19 08:52:07;;;;;;;36.83;15.55;;;;;;;5.52;100.00;101909.94;5080361;28;20045;-80
2023/12/19 08:54:33;;;;;;;39.17;16.25;;;;;;;5.52;100.00;101902.75;5062926;28;20172;-80
2023/12/19 08:56:59;;;;;;;34.87;14.33;;;;;;;5.53;100.00;101900.88;5079014;28;20490;-80
2023/12/19 08:59:24;;;;;;;44.95;15.70;;;;;;;5.52;100.00;101891.97;5096354;28;20133;-80
2023/12/19 09:01:49;;;;;;;35.13;15.18;;;;;;;5.54;100.00;101889.94;5096465;28;20066;-80
2023/12/19 09:04:15;;;;;;;42.30;14.03;;;;;;;5.51;100.00;101898.34;5097732;28;20036;-80
2023/12/19 09:06:40;;;;;;;39.40;14.67;;;;;;;5.52;100.00;101900.03;5079965;28;20432;-80
2023/12/19 09:09:05;;;;;;;33.97;14.40;;;;;;;5.54;100.00;101897.19;5079686;28;20036;-80
2023/12/19 09:11:33;;;;;;;33.93;13.47;;;;;;;5.60;100.00;101897.41;5096496;28;20028;-80
2023/12/19 09:13:58;;;;;;;36.67;13.70;;;;;;;5.53;100.00;101895.50;5095636;28;20032;-80
2023/12/19 09:16:24;;;;;;;41.53;14.30;;;;;;;5.55;100.00;101893.47;5097473;28;20047;-80
2023/12/19 09:18:49;;;;;;;39.10;14.63;;;;;;;5.55;100.00;101894.34;5096347;28;20028;-80
2023/12/19 09:21:15;;;;;;;30.30;12.52;;;;;;;5.54;100.00;101875.66;5078878;28;20493;-80
2023/12/19 09:23:42;;;;;;;37.67;14.00;;;;;;;5.55;100.00;101890.78;5096272;28;20035;-80
2023/12/19 09:26:08;;;;;;;25.08;10.32;;;;;;;5.56;100.00;101873.63;5079207;28;20067;-80
2023/12/19 09:28:34;;;;;;;39.10;14.50;;;;;;;5.53;100.00;101874.78;5095041;28;20024;-80
2023/12/19 09:30:59;;;;;;;30.58;13.15;;;;;;;5.56;100.00;101865.56;5095764;28;20362;-80
2023/12/19 09:33:25;;;;;;;36.80;14.03;;;;;;;5.53;100.00;101877.47;5095442;28;20488;-80
2023/12/19 09:35:50;;;;;;;35.97;13.03;;;;;;;5.55;100.00;101862.03;5078583;28;20126;-80
2023/12/19 09:38:15;;;;;;;34.47;14.13;;;;;;;5.55;100.00;101869.25;5096854;28;20078;-80
2023/12/19 09:40:41;;;;;;;29.93;13.20;;;;;;;5.56;100.00;101870.94;5078334;28;20040;-80
2023/12/19 09:43:07;;;;;;;33.22;13.10;;;;;;;5.59;100.00;101873.31;5078612;28;20480;-80
2023/12/19 09:45:32;;;;;;;30.10;12.67;;;;;;;5.60;100.00;101867.78;5094943;28;20495;-80
2023/12/19 09:47:59;;;;;;;31.35;12.75;;;;;;;5.59;100.00;101860.69;5095288;28;20043;-80
2023/12/19 09:50:26;;;;;;;33.88;13.27;;;;;;;5.66;100.00;101852.00;5078384;28;20497;-80
2023/12/19 09:52:55;;;;;;;31.65;13.27;;;;;;;5.60;100.00;101856.19;5095342;28;20468;-80
2023/12/19 09:55:21;;;;;;;31.80;12.52;;;;;;;5.61;100.00;101849.81;5095048;28;20464;-80
2023/12/19 09:57:47;;;;;;;30.23;11.90;;;;;;;5.61;100.00;101837.16;5074687;28;20028;-81
2023/12/19 10:00:13;;;;;;;33.88;12.05;;;;;;;5.62;100.00;101848.78;5092990;28;20024;-80
2023/12/19 10:02:41;;;;;;;30.70;12.15;;;;;;;5.62;100.00;101838.88;5076984;28;20146;-81
2023/12/19 10:05:08;;;;;;;26.52;11.20;;;;;;;5.67;100.00;101837.53;5095237;28;20127;-81
2023/12/19 10:07:34;;;;;;;32.58;12.52;;;;;;;5.65;100.00;101831.47;5095577;28;20039;-81
2023/12/19 10:09:59;;;;;;;29.83;11.63;;;;;;;5.66;100.00;101836.69;5095617;28;20049;-81
2023/12/19 10:12:29;;;;;;;33.97;13.13;;;;;;;5.68;100.00;101831.16;5094175;28;20152;-81
2023/12/19 10:15:15;;;;;;;33.95;13.05;;;;;;;5.68;100.00;101821.22;5094615;28;20563;-81
2023/12/19 10:18:11;;;;;;;28.27;11.23;;;;;;;5.73;100.00;101834.22;5094250;28;20035;-81
2023/12/19 10:20:37;;;;;;;26.67;10.75;;;;;;;5.72;100.00;101817.19;5094717;28;20127;-81
2023/12/19 10:23:04;;;;;;;29.55;11.45;;;;;;;5.70;100.00;101835.38;5094094;28;20127;-80
2023/12/19 10:25:31;;;;;;;29.83;11.40;;;;;;;5.71;100.00;101820.06;5094814;28;20378;-81
2023/12/19 10:28:05;;;;;;;27.52;11.45;;;;;;;5.72;100.00;101821.75;5094202;28;20123;-80
2023/12/19 10:30:30;;;;;;;32.30;12.40;;;;;;;5.72;100.00;101809.13;5094451;28;20553;-80
2023/12/19 10:32:55;;;;;;;27.70;11.00;;;;;;;5.73;100.00;101799.22;5094240;28;20028;-80
2023/12/19 10:35:21;;;;;;;31.00;13.40;;;;;;;5.72;100.00;101790.28;5094318;28;20036;-81
2023/12/19 10:37:46;;;;;;;34.10;11.45;;;;;;;5.75;100.00;101783.72;5074142;28;20086;-80
2023/12/19 10:40:14;;;;;;;35.28;12.13;;;;;;;5.76;100.00;101782.72;5074242;28;20036;-80
2023/12/19 10:42:40;;;;;;;41.15;12.88;;;;;;;5.77;100.00;101776.31;5074030;28;20040;-81
2023/12/19 10:45:06;;;;;;;30.90;11.33;;;;;;;5.81;100.00;101783.06;5075237;28;20474;-80
2023/12/19 10:47:32;;;;;;;37.60;13.00;;;;;;;5.80;100.00;101773.31;5040874;28;20071;-81
2023/12/19 10:49:57;;;;;;;33.95;13.15;;;;;;;5.79;100.00;101772.47;5074133;28;20032;-81
2023/12/19 10:52:26;;;;;;;36.53;13.23;;;;;;;5.78;100.00;101765.38;5090954;28;20033;-80
2023/12/19 10:54:59;;;;;;;32.67;12.15;;;;;;;5.80;100.00;101755.31;5073618;28;20032;-81
2023/12/19 10:57:31;;;;;;;39.35;13.98;;;;;;;5.81;100.00;101737.28;5075018;28;20495;-80
2023/12/19 11:00:10;;;;;;;38.08;13.45;;;;;;;5.83;100.00;101729.91;5074939;28;20065;-80
2023/12/19 11:02:47;;;;;;;34.40;13.30;;;;;;;5.84;100.00;101719.97;5073670;28;20079;-80
2023/12/19 11:05:40;;;;;;;31.17;12.43;;;;;;;5.84;100.00;101717.28;5074860;28;20090;-79